createdAt,value
2023-11-22T00:01:41.954Z,102340.41
2023-11-22T00:06:44.944Z,102341.53
2023-11-22T00:11:49.564Z,102345.81
2023-11-22T00:16:52.622Z,102333.91
2023-11-22T00:21:55.636Z,102324.88
2023-11-22T00:27:00.267Z,102336.41
2023-11-22T00:32:03.230Z,102336.44
2023-11-22T00:37:06.313Z,102333.47
2023-11-22T00:42:10.956Z,102336.22
2023-11-22T00:47:13.989Z,102334.81
2023-11-22T00:52:16.936Z,102331.31
2023-11-22T00:57:21.520Z,102345.56
2023-11-22T01:02:24.502Z,102350.00
2023-11-22T01:07:27.488Z,102349.16
2023-11-22T01:12:32.122Z,102345.03
2023-11-22T01:17:35.156Z,102348.97
2023-11-22T01:22:38.132Z,102350.75
2023-11-22T01:27:42.817Z,102344.13
2023-11-22T01:32:45.884Z,102343.50
2023-11-22T01:37:48.938Z,102349.66
2023-11-22T01:42:53.535Z,102348.03
2023-11-22T01:47:57.373Z,102352.78
2023-11-22T01:53:00.376Z,102351.25
2023-11-22T01:58:06.020Z,102352.09
2023-11-22T02:03:09.145Z,102360.13
2023-11-22T02:08:12.235Z,102361.00
2023-11-22T02:13:16.851Z,102356.53
2023-11-22T02:18:19.860Z,102361.03
2023-11-22T02:23:24.577Z,102344.41
2023-11-22T02:28:27.544Z,102351.53
2023-11-22T02:33:30.493Z,102352.41
2023-11-22T02:38:35.113Z,102348.97
2023-11-22T02:43:41.278Z,102344.69
2023-11-22T02:48:44.331Z,102336.03
2023-11-22T02:53:48.949Z,102334.31
2023-11-22T02:58:51.955Z,102345.66
2023-11-22T03:03:55.001Z,102349.13
2023-11-22T03:08:59.686Z,102355.22
2023-11-22T03:14:02.653Z,102355.22
2023-11-22T03:19:05.642Z,102353.56
2023-11-22T03:24:10.662Z,102357.09
2023-11-22T03:29:13.636Z,102351.91
2023-11-22T03:34:16.598Z,102355.41
2023-11-22T03:39:21.238Z,102345.75
2023-11-22T03:44:24.244Z,102351.91
2023-11-22T03:49:27.277Z,102346.66
2023-11-22T03:54:32.887Z,102354.50
2023-11-22T03:59:36.878Z,102361.50
2023-11-22T04:04:39.979Z,102350.16
2023-11-22T04:09:44.561Z,102355.38
2023-11-22T04:14:47.655Z,102352.75
2023-11-22T04:19:50.748Z,102361.47
2023-11-22T04:24:56.371Z,102349.25
2023-11-22T04:29:59.344Z,102352.72
2023-11-22T04:35:02.290Z,102357.13
2023-11-22T04:40:07.788Z,102359.72
2023-11-22T04:45:11.443Z,102368.47
2023-11-22T04:50:14.583Z,102359.72
2023-11-22T04:55:20.519Z,102354.50
2023-11-22T05:00:23.731Z,102353.63
2023-11-22T05:05:26.701Z,102363.19
2023-11-22T05:10:31.346Z,102361.44
2023-11-22T05:15:34.315Z,102353.59
2023-11-22T05:20:37.323Z,102346.63
2023-11-22T05:25:41.943Z,102344.84
2023-11-22T05:30:44.953Z,102350.06
2023-11-22T05:35:47.937Z,102349.19
2023-11-22T05:40:52.580Z,102341.31
2023-11-22T05:45:55.597Z,102349.16
2023-11-22T05:50:58.650Z,102347.38
2023-11-22T05:56:04.518Z,102344.78
2023-11-22T06:01:08.803Z,102349.16
2023-11-22T06:06:11.759Z,102336.91
2023-11-22T06:11:16.526Z,102335.16
2023-11-22T06:16:19.598Z,102333.34
2023-11-22T06:21:22.728Z,102334.28
2023-11-22T06:26:27.522Z,102320.38
2023-11-22T06:31:30.508Z,102309.91
2023-11-22T06:36:33.484Z,102326.44
2023-11-22T06:41:38.128Z,102309.00
2023-11-22T06:46:41.125Z,102315.09
2023-11-22T06:51:44.114Z,102308.91
2023-11-22T06:56:48.778Z,102304.53
2023-11-22T07:01:51.778Z,102305.38
2023-11-22T07:06:54.734Z,102292.44
2023-11-22T07:11:59.314Z,102291.56
2023-11-22T07:17:02.253Z,102301.06
2023-11-22T07:22:05.398Z,102299.28
2023-11-22T07:27:11.061Z,102287.94
2023-11-22T07:32:14.015Z,102291.31
2023-11-22T07:37:16.987Z,102288.69
2023-11-22T07:42:21.588Z,102292.13
2023-11-22T07:47:24.632Z,102287.78
2023-11-22T07:52:27.648Z,102286.84
2023-11-22T07:57:32.247Z,102285.00
2023-11-22T08:02:36.429Z,102275.47
2023-11-22T08:07:40.856Z,102274.56
2023-11-22T08:12:45.475Z,102271.94
2023-11-22T08:17:48.864Z,102271.03
2023-11-22T08:22:52.144Z,102257.06
2023-11-22T08:27:57.950Z,102253.41
2023-11-22T08:33:01.000Z,102246.56
2023-11-22T08:38:04.033Z,102236.97
2023-11-22T08:43:08.659Z,102234.47
2023-11-22T08:48:11.741Z,102221.34
2023-11-22T08:53:14.863Z,102216.13
2023-11-22T08:58:19.472Z,102211.81
2023-11-22T09:03:22.454Z,102203.16
2023-11-22T09:08:27.646Z,102213.41
2023-11-22T09:13:34.925Z,102215.16
2023-11-22T09:18:38.408Z,102202.97
2023-11-22T09:23:41.420Z,102208.19
2023-11-22T09:28:46.063Z,102212.34
2023-11-22T09:33:49.213Z,102202.00
2023-11-22T09:38:53.065Z,102192.53
2023-11-22T09:43:57.712Z,102188.19
2023-11-22T09:49:01.019Z,102188.81
2023-11-22T09:54:06.235Z,102194.81
2023-11-22T09:59:13.888Z,102188.84
2023-11-22T10:04:17.138Z,102188.97
2023-11-22T10:09:20.178Z,102189.69
2023-11-22T10:14:27.496Z,102190.50
2023-11-22T10:19:30.600Z,102184.31
2023-11-22T10:24:33.717Z,102191.25
2023-11-22T10:29:38.411Z,102180.91
2023-11-22T10:34:41.460Z,102199.00
2023-11-22T10:39:44.441Z,102193.06
2023-11-22T10:44:50.202Z,102188.72
2023-11-22T10:49:53.202Z,102187.06
2023-11-22T10:55:03.905Z,102187.88
2023-11-22T11:00:09.849Z,102180.19
2023-11-22T11:05:16.767Z,102182.78
2023-11-22T11:10:25.220Z,102175.72
2023-11-22T11:15:30.336Z,102167.09
2023-11-22T11:20:34.433Z,102167.84
2023-11-22T11:25:37.461Z,102158.31
2023-11-22T11:30:46.615Z,102147.09
2023-11-22T11:35:50.179Z,102152.19
2023-11-22T11:40:53.930Z,102145.41
2023-11-22T11:46:02.252Z,102135.59
2023-11-22T11:51:05.275Z,102137.44
2023-11-22T11:56:09.623Z,102139.97
2023-11-22T12:01:15.713Z,102133.84
2023-11-22T12:06:20.022Z,102132.94
2023-11-22T12:11:23.197Z,102133.84
2023-11-22T12:16:27.898Z,102134.72
2023-11-22T12:21:31.854Z,102139.09
2023-11-22T12:26:34.817Z,102132.97
2023-11-22T12:31:45.534Z,102138.97
2023-11-22T12:36:49.647Z,102138.31
2023-11-22T12:42:01.645Z,102127.88
2023-11-22T12:47:11.357Z,102126.22
2023-11-22T12:52:14.292Z,102133.03
2023-11-22T12:57:19.711Z,102129.56
2023-11-22T13:02:25.295Z,102107.22
2023-11-22T13:07:28.329Z,102114.97
2023-11-22T13:12:31.288Z,102102.00
2023-11-22T13:17:36.919Z,102107.09
2023-11-22T13:22:39.870Z,102103.56
2023-11-22T13:27:42.801Z,102098.47
2023-11-22T13:32:47.567Z,102101.03
2023-11-22T13:37:50.904Z,102094.00
2023-11-22T13:42:53.937Z,102077.50
2023-11-22T13:47:58.646Z,102083.53
2023-11-22T13:53:01.660Z,102070.66
2023-11-22T13:58:04.727Z,102079.16
2023-11-22T14:03:09.869Z,102084.41
2023-11-22T14:08:13.446Z,102081.84
2023-11-22T14:13:16.907Z,102069.59
2023-11-22T14:18:21.668Z,102074.75
2023-11-22T14:23:24.672Z,102073.78
2023-11-22T14:28:27.649Z,102082.53
2023-11-22T14:33:32.352Z,102082.44
2023-11-22T14:38:35.346Z,102079.00
2023-11-22T14:43:38.301Z,102080.69
2023-11-22T14:48:42.987Z,102073.59
2023-11-22T14:53:45.978Z,102078.81
2023-11-22T14:58:48.935Z,102079.78
2023-11-22T15:03:54.587Z,102071.88
2023-11-22T15:08:57.618Z,102072.78
2023-11-22T15:14:00.601Z,102078.88
2023-11-22T15:19:05.323Z,102094.78
2023-11-22T15:24:08.718Z,102076.75
2023-11-22T15:29:11.701Z,102079.50
2023-11-22T15:34:17.278Z,102079.72
2023-11-22T15:39:20.240Z,102092.09
2023-11-22T15:44:23.282Z,102093.06
2023-11-22T15:49:27.879Z,102082.81
2023-11-22T15:54:30.804Z,102079.34
2023-11-22T15:59:33.802Z,102073.31
2023-11-22T16:04:38.426Z,102075.94
2023-11-22T16:09:41.374Z,102073.31
2023-11-22T16:14:44.404Z,102064.53
2023-11-22T16:19:49.095Z,102067.06
2023-11-22T16:24:52.051Z,102070.44
2023-11-22T16:29:55.149Z,102078.97
2023-11-22T16:34:59.885Z,102083.22
2023-11-22T16:40:02.818Z,102074.06
2023-11-22T16:45:06.378Z,102082.31
2023-11-22T16:50:11.556Z,102080.56
2023-11-22T16:55:14.553Z,102071.88
2023-11-22T17:00:19.179Z,102075.97
2023-11-22T17:05:24.139Z,102076.97
2023-11-22T17:10:45.206Z,102062.22
2023-11-22T17:15:50.064Z,102063.81
2023-11-22T17:20:54.708Z,102064.31
2023-11-22T17:25:57.673Z,102062.16
2023-11-22T17:31:00.679Z,102077.41
2023-11-22T17:36:05.997Z,102077.41
2023-11-22T17:41:09.165Z,102088.78
2023-11-22T17:46:12.125Z,102075.75
2023-11-22T17:51:16.738Z,102070.09
2023-11-22T17:56:19.685Z,102089.94
2023-11-22T18:01:22.653Z,102087.13
2023-11-22T18:06:27.267Z,102087.41
2023-11-22T18:11:30.245Z,102066.03
2023-11-22T18:16:33.180Z,102048.56
2023-11-22T18:21:37.798Z,102033.56
2023-11-22T18:26:40.823Z,102040.50
2023-11-22T18:31:43.856Z,102055.47
2023-11-22T18:36:48.468Z,102045.16
2023-11-22T18:41:52.200Z,102042.69
2023-11-22T18:46:55.169Z,102045.44
2023-11-22T18:52:00.730Z,102031.16
2023-11-22T18:57:03.708Z,102015.31
2023-11-22T19:02:07.186Z,102019.75
2023-11-22T19:07:12.048Z,102016.38
2023-11-22T19:12:15.006Z,101999.88
2023-11-22T19:17:17.929Z,101980.19
2023-11-22T19:22:22.581Z,101959.91
2023-11-22T19:27:25.539Z,101943.69
2023-11-22T19:32:28.524Z,101927.47
2023-11-22T19:37:33.131Z,101897.13
2023-11-22T19:42:36.081Z,101897.13
2023-11-22T19:47:39.050Z,101889.13
2023-11-22T19:52:44.693Z,101878.47
2023-11-22T19:57:47.654Z,101879.38
2023-11-22T20:02:50.778Z,101861.31
2023-11-22T20:07:55.436Z,101847.78
2023-11-22T20:12:58.367Z,101844.94
2023-11-22T20:18:01.459Z,101830.06
2023-11-22T20:23:06.850Z,101823.53
2023-11-22T20:28:09.882Z,101798.19
2023-11-22T20:33:12.934Z,101787.81
2023-11-22T20:38:17.583Z,101772.63
2023-11-22T20:43:20.521Z,101766.94
2023-11-22T20:48:23.542Z,101756.97
2023-11-22T20:53:28.173Z,101756.22
2023-11-22T20:58:31.161Z,101762.78
2023-11-22T21:03:34.200Z,101753.78
2023-11-22T21:08:38.911Z,101735.09
2023-11-22T21:13:41.925Z,101724.19
2023-11-22T21:18:44.939Z,101714.47
2023-11-22T21:23:49.633Z,101694.78
2023-11-22T21:28:52.588Z,101687.03
2023-11-22T21:33:55.628Z,101700.13
2023-11-22T21:39:00.427Z,101689.38
2023-11-22T21:44:03.429Z,101679.81
2023-11-22T21:49:06.432Z,101696.53
2023-11-22T21:54:11.183Z,101696.19
2023-11-22T21:59:14.139Z,101682.25
2023-11-22T22:04:17.367Z,101680.31
2023-11-22T22:09:22.107Z,101682.09
2023-11-22T22:14:25.072Z,101680.75
2023-11-22T22:19:28.107Z,101677.47
2023-11-22T22:24:32.748Z,101669.59
2023-11-22T22:29:35.725Z,101655.72
2023-11-22T22:34:38.687Z,101640.97
2023-11-22T22:39:44.026Z,101643.41
2023-11-22T22:44:46.994Z,101641.19
2023-11-22T22:49:49.935Z,101625.78
2023-11-22T22:54:54.964Z,101602.50
2023-11-22T22:59:57.978Z,101588.63
2023-11-22T23:05:00.944Z,101583.19
2023-11-22T23:10:05.827Z,101582.56
2023-11-22T23:15:09.437Z,101577.91
2023-11-22T23:20:13.042Z,101547.56
2023-11-22T23:25:17.693Z,101534.72
2023-11-22T23:30:20.783Z,101525.44
2023-11-22T23:35:24.169Z,101525.34
2023-11-22T23:40:28.769Z,101523.88
2023-11-22T23:45:31.718Z,101532.94
2023-11-22T23:50:34.652Z,101535.41
2023-11-22T23:55:39.229Z,101547.59
